Time;durP1;ratioP1;P1;durP2;ratioP2;P2;SDS_P1;SDS_P2;PMS_P1;PMS_P2;Temp;Humidity;BMP_temperature;BMP_pressure;BME280_temperature;BME280_humidity;BME280_pressure;Samples;Min_cycle;Max_cycle;Signal;HPM_P1;HPM_P2
2022/01/31 00:00:48;;;;;;;6.17;3.00;;;3.00;99.90;;;;;;5068333;28;20183;-72
2022/01/31 00:03:14;;;;;;;5.30;2.53;;;3.00;99.90;;;;;;5072719;28;20189;-72
2022/01/31 00:05:39;;;;;;;9.23;3.23;;;2.90;99.90;;;;;;5068561;28;20179;-72
2022/01/31 00:08:05;;;;;;;5.93;2.50;;;2.90;99.90;;;;;;5065551;28;20234;-71
2022/01/31 00:10:31;;;;;;;9.60;2.80;;;3.10;99.90;;;;;;5072738;28;20233;-72
2022/01/31 00:13:09;;;;;;;5.33;2.40;;;3.10;99.90;;;;;;5073219;28;20168;-72
2022/01/31 00:15:41;;;;;;;8.10;3.10;;;3.30;99.90;;;;;;5071063;28;20159;-72
2022/01/31 00:18:07;;;;;;;11.37;2.17;;;3.30;99.90;;;;;;5051127;28;20221;-72
2022/01/31 00:20:33;;;;;;;8.90;2.63;;;3.40;99.90;;;;;;5068183;28;20645;-72
2022/01/31 00:22:58;;;;;;;7.00;3.00;;;3.40;99.90;;;;;;5070932;28;20209;-72
2022/01/31 00:25:24;;;;;;;6.90;2.73;;;3.40;99.90;;;;;;5070882;28;20223;-71
2022/01/31 00:27:50;;;;;;;10.90;4.60;;;3.40;99.90;;;;;;5071166;28;20209;-72
2022/01/31 00:30:17;;;;;;;6.53;2.90;;;3.30;99.90;;;;;;5073302;28;20270;-71
2022/01/31 00:32:43;;;;;;;6.77;2.77;;;3.40;99.90;;;;;;5072015;28;20254;-72
2022/01/31 00:35:09;;;;;;;7.33;2.80;;;3.30;99.90;;;;;;5073450;28;20650;-72
2022/01/31 00:37:35;;;;;;;5.20;2.67;;;3.20;99.90;;;;;;5081031;28;20194;-72
2022/01/31 00:40:03;;;;;;;5.23;2.40;;;3.10;99.90;;;;;;5082277;28;20183;-72
2022/01/31 00:42:29;;;;;;;5.30;2.30;;;3.00;99.90;;;;;;5072692;28;20171;-71
2022/01/31 00:45:06;;;;;;;4.10;2.70;;;2.90;99.90;;;;;;5089410;28;20182;-72
2022/01/31 00:47:32;;;;;;;10.37;3.50;;;3.00;99.90;;;;;;5087537;28;20202;-72
2022/01/31 00:50:09;;;;;;;8.47;2.97;;;2.90;99.90;;;;;;5063757;28;20531;-71
2022/01/31 00:52:36;;;;;;;12.13;2.50;;;2.80;99.90;;;;;;5058612;28;20649;-71
2022/01/31 00:55:04;;;;;;;10.93;2.93;;;2.70;99.90;;;;;;5068036;28;20645;-72
2022/01/31 00:57:30;;;;;;;6.20;2.67;;;2.60;99.90;;;;;;5077673;28;20198;-72
2022/01/31 00:59:56;;;;;;;5.20;2.23;;;2.50;99.90;;;;;;5073496;28;20190;-72
2022/01/31 01:02:22;;;;;;;7.80;2.70;;;2.50;99.90;;;;;;5069451;28;20179;-71
2022/01/31 01:04:49;;;;;;;7.53;2.73;;;2.60;99.90;;;;;;5076999;28;20179;-71
2022/01/31 01:07:15;;;;;;;5.03;2.53;;;2.50;99.90;;;;;;5074572;28;20290;-71
2022/01/31 01:09:44;;;;;;;7.30;2.37;;;2.50;99.90;;;;;;5080710;28;20292;-71
2022/01/31 01:12:10;;;;;;;6.07;2.53;;;2.50;99.90;;;;;;5077309;28;20535;-72
2022/01/31 01:14:36;;;;;;;6.07;2.73;;;2.50;99.90;;;;;;5071984;28;20744;-71
2022/01/31 01:17:01;;;;;;;8.83;2.60;;;2.40;99.90;;;;;;5056701;28;20191;-72
2022/01/31 01:19:27;;;;;;;6.80;2.57;;;2.30;99.90;;;;;;5072583;28;20261;-72
2022/01/31 01:21:53;;;;;;;10.43;2.90;;;2.30;99.90;;;;;;5062825;28;20203;-72
2022/01/31 01:24:18;;;;;;;7.73;2.60;;;2.30;99.90;;;;;;5074652;28;20220;-71
2022/01/31 01:26:44;;;;;;;8.17;3.03;;;2.30;99.90;;;;;;5082972;28;20199;-72
2022/01/31 01:29:10;;;;;;;6.10;2.67;;;2.20;99.90;;;;;;5053170;28;20255;-72
2022/01/31 01:31:36;;;;;;;3.60;2.10;;;2.20;99.90;;;;;;5077689;28;20176;-72
2022/01/31 01:34:02;;;;;;;4.87;2.47;;;2.30;99.90;;;;;;5070031;28;20167;-72
2022/01/31 01:36:28;;;;;;;8.97;2.77;;;2.40;99.90;;;;;;5076304;28;20697;-72
2022/01/31 01:38:54;;;;;;;4.83;2.73;;;2.40;99.90;;;;;;5071456;28;20175;-71
2022/01/31 01:41:20;;;;;;;8.87;2.50;;;2.50;99.90;;;;;;5074462;28;20208;-72
2022/01/31 01:43:46;;;;;;;3.43;2.43;;;2.60;99.90;;;;;;5081562;28;20189;-71
2022/01/31 01:46:12;;;;;;;3.90;2.63;;;2.60;99.90;;;;;;5077496;28;20179;-72
2022/01/31 01:48:37;;;;;;;4.83;2.50;;;2.60;99.90;;;;;;5062259;28;20321;-72
2022/01/31 01:51:04;;;;;;;8.60;2.33;;;2.60;99.90;;;;;;5072966;28;20175;-72
2022/01/31 01:53:30;;;;;;;4.63;2.47;;;2.50;99.90;;;;;;5071394;28;20330;-72
2022/01/31 01:55:56;;;;;;;5.30;2.23;;;2.50;99.90;;;;;;5053773;28;20266;-72
2022/01/31 01:58:24;;;;;;;5.00;2.47;;;2.40;99.90;;;;;;5072622;28;20684;-72
2022/01/31 02:00:59;;;;;;;7.90;2.77;;;2.30;99.90;;;;;;5080212;28;20174;-71
2022/01/31 02:03:27;;;;;;;4.53;2.97;;;2.40;99.90;;;;;;5071931;28;20186;-72
2022/01/31 02:05:52;;;;;;;8.17;2.67;;;2.50;99.90;;;;;;5076738;28;20179;-72
2022/01/31 02:08:19;;;;;;;6.67;2.87;;;2.40;99.90;;;;;;5064089;28;20237;-72
2022/01/31 02:10:45;;;;;;;7.93;2.60;;;2.50;99.90;;;;;;5081658;28;20178;-72
2022/01/31 02:13:11;;;;;;;6.77;2.60;;;2.60;99.90;;;;;;5076940;28;20687;-72
2022/01/31 02:15:38;;;;;;;6.47;2.80;;;2.60;99.90;;;;;;5073780;28;20191;-72
2022/01/31 02:18:04;;;;;;;8.57;2.70;;;2.50;99.90;;;;;;5072767;28;20290;-72
2022/01/31 02:20:30;;;;;;;5.03;2.43;;;2.50;99.90;;;;;;5070076;28;20676;-72
2022/01/31 02:22:57;;;;;;;8.20;3.30;;;2.40;99.90;;;;;;5077768;28;20654;-72
2022/01/31 02:25:23;;;;;;;8.00;3.17;;;2.30;99.90;;;;;;5070458;28;20274;-72
2022/01/31 02:27:49;;;;;;;5.00;2.77;;;2.20;99.90;;;;;;5072074;28;20336;-72
2022/01/31 02:30:17;;;;;;;8.97;3.57;;;2.30;99.90;;;;;;5070999;28;20186;-72
2022/01/31 02:32:44;;;;;;;4.20;2.40;;;2.30;99.90;;;;;;5067986;28;20210;-72
2022/01/31 02:35:11;;;;;;;7.33;3.03;;;2.30;99.90;;;;;;5055476;28;20171;-72
2022/01/31 02:37:37;;;;;;;3.43;2.47;;;2.40;99.90;;;;;;5054359;28;20230;-72
2022/01/31 02:40:03;;;;;;;5.40;3.03;;;2.50;99.90;;;;;;5068208;28;20219;-72
2022/01/31 02:42:29;;;;;;;7.20;2.83;;;2.50;99.90;;;;;;5084652;28;20179;-72
2022/01/31 02:44:54;;;;;;;7.33;3.60;;;2.50;99.90;;;;;;5071840;28;20187;-72
2022/01/31 02:47:26;;;;;;;5.57;3.30;;;2.50;99.90;;;;;;5088943;28;20243;-71
2022/01/31 02:49:59;;;;;;;4.67;2.87;;;2.50;99.90;;;;;;5074308;28;20172;-71
2022/01/31 02:52:28;;;;;;;6.03;3.37;;;2.60;99.90;;;;;;5079829;28;20680;-72
2022/01/31 02:54:54;;;;;;;7.47;3.03;;;2.60;99.90;;;;;;5075632;28;20645;-72
2022/01/31 02:57:20;;;;;;;9.23;2.97;;;2.60;99.90;;;;;;5076489;28;20434;-72
2022/01/31 02:59:45;;;;;;;5.53;3.23;;;2.60;99.90;;;;;;5070210;28;20205;-71
2022/01/31 03:02:11;;;;;;;4.50;3.20;;;2.60;99.90;;;;;;5072351;28;20183;-72
2022/01/31 03:04:36;;;;;;;8.20;3.57;;;2.60;99.90;;;;;;5067383;28;20662;-72
2022/01/31 03:07:02;;;;;;;10.47;3.80;;;2.60;99.90;;;;;;5061491;28;20195;-72
2022/01/31 03:09:28;;;;;;;6.60;3.63;;;2.60;99.90;;;;;;5078585;28;20230;-71
2022/01/31 03:11:54;;;;;;;7.83;3.30;;;2.60;99.90;;;;;;5074138;28;20654;-72
2022/01/31 03:14:19;;;;;;;6.87;3.10;;;2.60;99.90;;;;;;5080195;28;20175;-72
2022/01/31 03:16:47;;;;;;;10.77;3.97;;;2.60;99.90;;;;;;5071309;28;20206;-72
2022/01/31 03:19:15;;;;;;;5.53;2.57;;;2.60;99.90;;;;;;5053848;28;20665;-71
2022/01/31 03:21:41;;;;;;;2.80;2.47;;;2.50;99.90;;;;;;5070183;28;20194;-71
2022/01/31 03:24:09;;;;;;;6.93;3.53;;;2.50;99.90;;;;;;5072733;28;20589;-71
2022/01/31 03:26:35;;;;;;;9.20;3.50;;;2.40;99.90;;;;;;5071580;28;20633;-71
2022/01/31 03:29:00;;;;;;;7.70;3.00;;;2.40;99.90;;;;;;5073868;28;20286;-71
2022/01/31 03:31:26;;;;;;;6.70;3.10;;;2.40;99.90;;;;;;5077722;28;20183;-72
2022/01/31 03:33:54;;;;;;;7.63;3.57;;;2.40;99.90;;;;;;5075301;28;20187;-72
2022/01/31 03:36:20;;;;;;;7.13;3.77;;;2.40;99.90;;;;;;5080396;28;20191;-72
2022/01/31 03:38:47;;;;;;;5.63;3.20;;;2.30;99.90;;;;;;5073122;28;20583;-71
2022/01/31 03:41:15;;;;;;;6.60;4.50;;;2.20;99.90;;;;;;5057239;28;20324;-72
2022/01/31 03:43:40;;;;;;;6.97;3.83;;;2.20;99.90;;;;;;5073172;28;20187;-71
2022/01/31 03:46:07;;;;;;;3.13;2.83;;;2.10;99.90;;;;;;5074469;28;20190;-72
2022/01/31 03:48:33;;;;;;;4.80;3.20;;;2.10;99.90;;;;;;5071979;28;20210;-71
2022/01/31 03:51:00;;;;;;;6.13;3.50;;;2.10;99.90;;;;;;5075521;28;20553;-72
2022/01/31 03:53:26;;;;;;;3.80;2.40;;;2.10;99.90;;;;;;5061434;28;20176;-71
2022/01/31 03:55:52;;;;;;;5.83;3.40;;;2.10;99.90;;;;;;5070656;28;20183;-71
2022/01/31 03:58:18;;;;;;;6.37;3.63;;;2.00;99.90;;;;;;5082020;28;20213;-71
2022/01/31 04:00:44;;;;;;;9.07;3.50;;;2.00;99.90;;;;;;5076521;28;20183;-72
2022/01/31 04:03:09;;;;;;;7.23;3.03;;;2.00;99.90;;;;;;5070081;28;20183;-72
2022/01/31 04:05:37;;;;;;;3.50;2.77;;;2.00;99.90;;;;;;5060391;28;20202;-72
2022/01/31 04:08:03;;;;;;;6.40;4.00;;;2.00;99.90;;;;;;5075403;28;20256;-72
2022/01/31 04:10:30;;;;;;;6.30;3.70;;;2.00;99.90;;;;;;5078109;28;20571;-71
2022/01/31 04:12:55;;;;;;;11.00;3.03;;;2.00;99.90;;;;;;5071800;28;20187;-71
2022/01/31 04:15:21;;;;;;;5.50;2.87;;;2.10;99.90;;;;;;5058772;28;20176;-72
2022/01/31 04:17:47;;;;;;;7.63;3.83;;;2.10;99.90;;;;;;5056157;28;20199;-71
2022/01/31 04:20:13;;;;;;;8.10;3.70;;;2.10;99.90;;;;;;5070988;28;20205;-72
2022/01/31 04:22:47;;;;;;;6.00;3.97;;;2.10;99.90;;;;;;5058985;28;20187;-72
2022/01/31 04:26:06;;;;;;;7.30;4.30;;;2.10;99.90;;;;;;5050950;28;20199;-72
2022/01/31 04:28:04;;;;;;;6.83;3.77;;;2.00;99.90;;;;;;5039877;28;20217;-72
2022/01/31 04:30:32;;;;;;;4.23;2.53;;;2.00;99.90;;;;;;5049551;28;20180;-72
2022/01/31 04:32:57;;;;;;;9.33;3.27;;;2.00;99.90;;;;;;5042806;28;20219;-72
2022/01/31 04:35:23;;;;;;;8.50;4.47;;;2.00;99.90;;;;;;5043541;28;20180;-72
2022/01/31 04:37:49;;;;;;;8.03;4.20;;;1.90;99.90;;;;;;5046606;28;20227;-72
2022/01/31 04:40:15;;;;;;;6.00;4.70;;;1.90;99.90;;;;;;5049814;28;20618;-72
2022/01/31 04:42:44;;;;;;;10.50;4.60;;;1.90;99.90;;;;;;5049785;28;20195;-72
2022/01/31 04:45:11;;;;;;;12.63;4.47;;;1.90;99.90;;;;;;5044906;28;20423;-72
2022/01/31 04:47:37;;;;;;;10.70;4.83;;;1.90;99.90;;;;;;5042449;28;20219;-72
2022/01/31 04:50:04;;;;;;;12.40;5.10;;;2.00;99.90;;;;;;5029510;28;20660;-72
2022/01/31 04:52:29;;;;;;;9.00;4.07;;;1.90;99.90;;;;;;5048625;28;20180;-72
2022/01/31 04:54:55;;;;;;;8.03;4.43;;;1.90;99.90;;;;;;5051317;28;20256;-72
2022/01/31 04:57:21;;;;;;;7.37;4.40;;;1.90;99.90;;;;;;5047595;28;20243;-72
2022/01/31 04:59:48;;;;;;;4.90;4.10;;;2.00;99.90;;;;;;5042310;28;20218;-72
2022/01/31 05:02:14;;;;;;;9.97;4.80;;;1.90;99.90;;;;;;5044918;28;20646;-72
2022/01/31 05:04:39;;;;;;;8.97;4.47;;;1.90;99.90;;;;;;5049890;28;20211;-72
2022/01/31 05:07:05;;;;;;;8.93;5.33;;;2.00;99.90;;;;;;5048638;28;20275;-72
2022/01/31 05:09:32;;;;;;;9.17;5.03;;;2.10;99.90;;;;;;5053747;28;20230;-72
2022/01/31 05:11:57;;;;;;;8.87;4.20;;;2.10;99.90;;;;;;5048011;28;20192;-72
2022/01/31 05:14:23;;;;;;;9.50;4.50;;;2.00;99.90;;;;;;5046267;28;20179;-72
2022/01/31 05:16:49;;;;;;;9.73;4.80;;;1.90;99.90;;;;;;5050571;28;20599;-72
2022/01/31 05:19:14;;;;;;;10.63;4.70;;;1.80;99.90;;;;;;5045948;28;20184;-72
2022/01/31 05:21:40;;;;;;;9.23;4.67;;;1.80;99.90;;;;;;5048927;28;20194;-72
2022/01/31 05:24:06;;;;;;;6.27;4.33;;;1.90;99.90;;;;;;5066856;28;20190;-72
2022/01/31 05:26:33;;;;;;;11.20;4.87;;;1.90;99.90;;;;;;5067041;28;20203;-71
2022/01/31 05:28:58;;;;;;;12.73;5.17;;;1.90;99.90;;;;;;5070065;28;20203;-72
2022/01/31 05:31:24;;;;;;;11.93;5.30;;;1.90;99.90;;;;;;5073149;28;20197;-72
2022/01/31 05:33:50;;;;;;;7.33;4.67;;;2.00;99.90;;;;;;5069625;28;20179;-71
2022/01/31 05:36:16;;;;;;;10.70;4.80;;;2.00;99.90;;;;;;5046266;28;20183;-71
2022/01/31 05:38:42;;;;;;;5.70;4.10;;;2.00;99.90;;;;;;5068131;28;20241;-71
2022/01/31 05:41:11;;;;;;;6.93;4.80;;;2.00;99.90;;;;;;5061136;28;20214;-72
2022/01/31 05:43:37;;;;;;;8.17;4.30;;;2.10;99.90;;;;;;5067806;28;20174;-72
2022/01/31 05:46:04;;;;;;;7.30;4.70;;;2.10;99.90;;;;;;5059380;28;20666;-71
2022/01/31 05:48:29;;;;;;;11.30;5.53;;;2.10;99.90;;;;;;5074447;28;20210;-72
2022/01/31 05:50:55;;;;;;;10.27;4.53;;;2.10;99.90;;;;;;5076967;28;20266;-72
2022/01/31 05:53:22;;;;;;;9.27;5.53;;;2.10;99.90;;;;;;5089700;28;20513;-72
2022/01/31 05:55:48;;;;;;;6.77;4.87;;;2.10;99.90;;;;;;5074706;28;20228;-71
2022/01/31 05:58:14;;;;;;;7.70;4.43;;;2.10;99.90;;;;;;5073676;28;20207;-71
2022/01/31 06:00:40;;;;;;;9.93;5.20;;;2.10;99.90;;;;;;5069862;28;20192;-72
2022/01/31 06:03:06;;;;;;;12.03;3.97;;;2.00;99.90;;;;;;5070998;28;20213;-72
2022/01/31 06:05:32;;;;;;;5.13;3.50;;;2.00;99.90;;;;;;5085951;28;20185;-72
2022/01/31 06:07:57;;;;;;;6.37;4.13;;;2.10;99.90;;;;;;5074756;28;20207;-72
2022/01/31 06:10:23;;;;;;;9.03;5.20;;;2.10;99.90;;;;;;5069706;28;20175;-72
2022/01/31 06:12:51;;;;;;;7.53;3.93;;;2.10;99.90;;;;;;5069410;28;20178;-72
2022/01/31 06:15:19;;;;;;;4.60;3.23;;;2.00;99.90;;;;;;5074406;28;20175;-72
2022/01/31 06:17:44;;;;;;;5.77;3.50;;;2.10;99.90;;;;;;5074159;28;20286;-72
2022/01/31 06:20:10;;;;;;;5.97;4.30;;;2.10;99.90;;;;;;5075324;28;20221;-72
2022/01/31 06:22:47;;;;;;;18.33;4.57;;;2.10;99.90;;;;;;5077034;28;20178;-72
2022/01/31 06:25:13;;;;;;;7.27;4.23;;;2.10;99.90;;;;;;5063864;28;20653;-72
2022/01/31 06:27:39;;;;;;;10.83;4.00;;;2.20;99.90;;;;;;5075043;28;20199;-72
2022/01/31 06:30:07;;;;;;;10.80;4.47;;;2.20;99.90;;;;;;5081651;28;20171;-73
2022/01/31 06:32:33;;;;;;;8.83;3.30;;;2.20;99.90;;;;;;5081701;28;20175;-73
2022/01/31 06:34:58;;;;;;;10.60;3.80;;;2.20;99.90;;;;;;5075702;28;20189;-73
2022/01/31 06:37:24;;;;;;;7.23;3.47;;;2.20;99.90;;;;;;5079972;28;20545;-72
2022/01/31 06:39:50;;;;;;;8.33;3.23;;;2.20;99.90;;;;;;5056942;28;20176;-73
2022/01/31 06:42:15;;;;;;;10.27;4.27;;;2.20;99.90;;;;;;5078983;28;20261;-73
2022/01/31 06:44:41;;;;;;;4.77;2.83;;;2.20;99.90;;;;;;5075641;28;20175;-72
2022/01/31 06:47:07;;;;;;;9.63;4.13;;;2.20;99.90;;;;;;5082707;28;20293;-72
2022/01/31 06:49:32;;;;;;;8.50;3.80;;;2.10;99.90;;;;;;5082333;28;20310;-72
2022/01/31 06:51:58;;;;;;;7.13;3.97;;;2.10;99.90;;;;;;5083294;28;20178;-73
2022/01/31 06:54:24;;;;;;;9.77;4.00;;;2.10;99.90;;;;;;5074207;28;20167;-73
2022/01/31 06:56:49;;;;;;;9.03;3.80;;;2.20;99.90;;;;;;5085522;28;20545;-72
2022/01/31 06:59:15;;;;;;;7.43;3.73;;;2.20;99.90;;;;;;5084658;28;20673;-72
2022/01/31 07:01:41;;;;;;;7.47;5.03;;;2.20;99.90;;;;;;5078672;28;20183;-72
2022/01/31 07:04:06;;;;;;;7.57;3.57;;;2.20;99.90;;;;;;5076078;28;20178;-73
2022/01/31 07:06:32;;;;;;;7.73;3.03;;;2.20;99.90;;;;;;5075598;28;20207;-72
2022/01/31 07:08:59;;;;;;;8.13;4.23;;;2.30;99.90;;;;;;5066383;28;20280;-72
2022/01/31 07:11:28;;;;;;;10.13;4.30;;;2.20;99.90;;;;;;5071095;28;20647;-73
2022/01/31 07:14:03;;;;;;;8.27;3.87;;;2.30;99.90;;;;;;5076673;28;20219;-73
2022/01/31 07:16:28;;;;;;;9.33;4.63;;;2.30;99.90;;;;;;5073321;28;20183;-73
2022/01/31 07:19:02;;;;;;;6.17;3.80;;;2.30;99.90;;;;;;5074690;28;20261;-70
2022/01/31 07:21:34;;;;;;;3.97;3.27;;;2.30;99.90;;;;;;5075514;28;20187;-71
2022/01/31 07:24:23;;;;;;;6.33;4.43;;;2.40;99.90;;;;;;5077614;28;20186;-72
2022/01/31 07:26:50;;;;;;;15.43;5.00;;;2.40;99.90;;;;;;5061218;28;20209;-72
2022/01/31 07:29:17;;;;;;;4.53;3.50;;;2.50;99.90;;;;;;5082789;28;20198;-71
2022/01/31 07:31:45;;;;;;;6.83;3.77;;;2.60;99.90;;;;;;5077708;28;20175;-72
2022/01/31 07:34:12;;;;;;;7.10;3.87;;;2.60;99.90;;;;;;5072086;28;20213;-72
2022/01/31 07:36:38;;;;;;;4.87;3.50;;;2.80;99.90;;;;;;5072128;28;20206;-72
2022/01/31 07:39:04;;;;;;;6.17;3.67;;;2.80;99.90;;;;;;5087500;28;20178;-72
2022/01/31 07:41:31;;;;;;;7.70;4.20;;;2.90;99.90;;;;;;5064132;28;20184;-72
2022/01/31 07:43:56;;;;;;;5.07;3.60;;;3.10;99.90;;;;;;5057126;28;20194;-72
2022/01/31 07:46:22;;;;;;;4.77;2.83;;;3.20;99.90;;;;;;5077132;28;20178;-72
2022/01/31 07:48:49;;;;;;;6.33;3.30;;;3.30;99.90;;;;;;5084507;28;20210;-72
2022/01/31 07:51:16;;;;;;;6.07;4.00;;;3.20;99.90;;;;;;5077706;28;20660;-72
2022/01/31 07:53:42;;;;;;;4.73;2.33;;;3.30;99.90;;;;;;5073875;28;20171;-72
2022/01/31 07:56:09;;;;;;;7.57;4.70;;;3.40;99.90;;;;;;5081264;28;20616;-72
2022/01/31 07:58:35;;;;;;;6.90;4.43;;;3.40;99.90;;;;;;5082576;28;20293;-72
2022/01/31 08:01:01;;;;;;;7.77;3.40;;;3.20;99.90;;;;;;5078136;28;20186;-72
2022/01/31 08:03:28;;;;;;;9.27;4.17;;;3.00;99.90;;;;;;5088661;28;20175;-72
2022/01/31 08:05:53;;;;;;;12.13;4.97;;;2.80;99.90;;;;;;5083726;28;20670;-73
2022/01/31 08:08:19;;;;;;;8.00;4.20;;;2.60;99.90;;;;;;5071031;28;20214;-74
2022/01/31 08:10:44;;;;;;;9.17;4.90;;;2.30;99.90;;;;;;5073446;28;20258;-73
2022/01/31 08:13:10;;;;;;;10.47;4.73;;;2.00;99.90;;;;;;5073745;28;20183;-73
2022/01/31 08:15:46;;;;;;;13.33;5.10;;;1.80;99.90;;;;;;5072191;28;20175;-73
2022/01/31 08:18:14;;;;;;;7.63;3.13;;;1.60;99.90;;;;;;5064224;28;20264;-74
2022/01/31 08:20:39;;;;;;;5.87;3.23;;;1.60;99.90;;;;;;5071482;28;20179;-75
2022/01/31 08:23:05;;;;;;;10.80;5.47;;;1.50;99.90;;;;;;5052481;28;20191;-74
2022/01/31 08:25:35;;;;;;;5.57;5.03;;;1.50;99.90;;;;;;5067801;28;20195;-75
2022/01/31 08:28:06;;;;;;;6.03;3.10;;;1.40;99.90;;;;;;5054015;28;20270;-73
2022/01/31 08:30:42;;;;;;;8.97;4.00;;;1.50;99.90;;;;;;5068547;28;20182;-72
2022/01/31 08:33:14;;;;;;;8.20;3.83;;;1.50;99.90;;;;;;5070804;28;20167;-72
2022/01/31 08:35:50;;;;;;;11.43;5.03;;;1.40;99.90;;;;;;5072581;28;20187;-73
2022/01/31 08:38:17;;;;;;;6.47;5.70;;;1.50;99.90;;;;;;5070702;28;20613;-74
2022/01/31 08:40:44;;;;;;;10.63;5.80;;;1.50;99.90;;;;;;5069476;28;20257;-74
2022/01/31 08:43:10;;;;;;;6.93;4.93;;;1.50;99.90;;;;;;5068372;28;20198;-73
2022/01/31 08:45:36;;;;;;;9.07;4.60;;;1.60;99.90;;;;;;5070869;28;20229;-74
2022/01/31 08:48:03;;;;;;;8.17;5.60;;;1.60;99.90;;;;;;5080730;28;20226;-72
2022/01/31 08:50:29;;;;;;;6.67;4.00;;;1.60;99.90;;;;;;5072060;28;20186;-72
2022/01/31 08:52:54;;;;;;;9.43;5.63;;;1.50;99.90;;;;;;5070828;28;20771;-72
2022/01/31 08:55:21;;;;;;;10.33;6.63;;;1.50;99.90;;;;;;5080544;28;20183;-69
2022/01/31 08:57:52;;;;;;;10.30;6.50;;;1.50;99.90;;;;;;5076439;28;20198;-69
2022/01/31 09:00:18;;;;;;;8.23;6.50;;;1.40;99.90;;;;;;5080433;28;20188;-69
2022/01/31 09:02:52;;;;;;;8.27;5.53;;;1.20;99.90;;;;;;5070226;28;20185;-69
2022/01/31 09:05:18;;;;;;;7.77;6.20;;;1.30;99.90;;;;;;5079900;28;20185;-72
2022/01/31 09:07:44;;;;;;;7.60;4.47;;;1.30;99.90;;;;;;5064411;28;20207;-71
2022/01/31 09:10:10;;;;;;;3.77;3.47;;;1.30;99.90;;;;;;5054600;28;20187;-73
2022/01/31 09:12:36;;;;;;;8.60;5.90;;;1.30;99.90;;;;;;5071935;28;20183;-71
2022/01/31 09:15:04;;;;;;;7.83;4.90;;;1.20;99.90;;;;;;5073395;28;20175;-72
2022/01/31 09:17:29;;;;;;;8.77;5.37;;;1.20;99.90;;;;;;5070557;28;20222;-73
2022/01/31 09:19:55;;;;;;;8.37;5.40;;;1.20;99.90;;;;;;5067437;28;20219;-71
2022/01/31 09:22:20;;;;;;;4.97;3.97;;;1.30;99.90;;;;;;5068243;28;20654;-71
2022/01/31 09:24:47;;;;;;;8.93;6.03;;;1.30;99.90;;;;;;5059085;28;20659;-72
2022/01/31 09:27:12;;;;;;;7.17;5.10;;;1.30;99.90;;;;;;5044565;28;20196;-69
2022/01/31 09:29:38;;;;;;;3.90;3.53;;;1.40;99.90;;;;;;5057080;28;20200;-69
2022/01/31 09:32:04;;;;;;;4.03;3.67;;;1.60;99.90;;;;;;5056899;28;20635;-71
2022/01/31 09:34:31;;;;;;;5.63;4.50;;;1.70;99.90;;;;;;5051868;28;20199;-71
2022/01/31 09:36:58;;;;;;;3.20;2.90;;;1.70;99.90;;;;;;5048138;28;20571;-72
2022/01/31 09:39:24;;;;;;;4.87;3.90;;;1.80;99.90;;;;;;5049081;28;20189;-71
2022/01/31 09:41:54;;;;;;;3.23;2.90;;;1.90;99.90;;;;;;5056170;28;20184;-71
2022/01/31 09:44:47;;;;;;;4.03;3.73;;;2.00;99.90;;;;;;5043908;28;20180;-72
2022/01/31 09:47:21;;;;;;;3.47;3.17;;;2.10;99.90;;;;;;5045820;28;20286;-73
2022/01/31 09:49:46;;;;;;;6.20;3.30;;;2.10;99.90;;;;;;5048889;28;20196;-72
2022/01/31 09:52:12;;;;;;;3.07;2.87;;;2.10;99.90;;;;;;5042866;28;20180;-71
2022/01/31 09:54:38;;;;;;;2.30;2.10;;;2.10;99.90;;;;;;5047646;28;20199;-70
2022/01/31 09:57:04;;;;;;;4.97;4.23;;;2.00;99.90;;;;;;5039096;28;20200;-72
2022/01/31 09:59:30;;;;;;;3.97;3.57;;;1.80;99.90;;;;;;5047075;28;20199;-71
2022/01/31 10:01:58;;;;;;;3.97;3.63;;;1.80;99.90;;;;;;5059931;28;20187;-72
2022/01/31 10:04:35;;;;;;;4.27;3.73;;;1.70;99.90;;;;;;5049193;28;20188;-73
2022/01/31 10:07:03;;;;;;;3.00;2.80;;;1.60;99.90;;;;;;5043092;28;20192;-74
2022/01/31 10:09:31;;;;;;;5.47;4.00;;;1.70;99.90;;;;;;5045068;28;20294;-72
2022/01/31 10:12:23;;;;;;;3.60;3.30;;;1.70;99.90;;;;;;5050855;28;20671;-72
2022/01/31 10:17:41;;;;;;;3.97;3.20;;;2.00;99.90;;;;;;5048623;28;20213;-72
2022/01/31 10:20:18;;;;;;;3.77;3.47;;;2.00;99.90;;;;;;5047986;28;20185;-73
2022/01/31 10:22:45;;;;;;;3.23;2.93;;;2.20;99.90;;;;;;5044459;28;20259;-72
2022/01/31 10:25:16;;;;;;;2.57;2.37;;;2.30;99.90;;;;;;5057978;28;20195;-72
2022/01/31 10:27:50;;;;;;;4.17;2.90;;;2.50;99.90;;;;;;5069418;28;20276;-72
2022/01/31 10:30:23;;;;;;;2.23;2.13;;;2.70;99.90;;;;;;5076166;28;20184;-73
2022/01/31 10:32:50;;;;;;;1.93;1.80;;;2.90;99.90;;;;;;5071328;28;20180;-72
2022/01/31 10:35:28;;;;;;;2.07;1.97;;;3.00;99.90;;;;;;5078332;28;20186;-70
2022/01/31 10:37:57;;;;;;;2.43;2.33;;;3.30;99.90;;;;;;5074203;28;20210;-69
2022/01/31 10:56:46;;;;;;;1.53;1.43;;;4.90;99.90;;;;;;5074289;28;20195;-70
2022/01/31 10:59:13;;;;;;;1.47;1.40;;;4.90;99.90;;;;;;5071974;28;20175;-70
2022/01/31 11:01:40;;;;;;;1.93;1.83;;;4.80;99.90;;;;;;5071082;28;20603;-70
2022/01/31 11:04:10;;;;;;;3.77;1.87;;;4.80;99.90;;;;;;5074148;28;20266;-70
2022/01/31 11:06:39;;;;;;;1.20;1.20;;;4.80;99.90;;;;;;5073852;28;20223;-70
2022/01/31 11:09:08;;;;;;;2.90;2.00;;;4.90;99.90;;;;;;5070309;28;20203;-70
2022/01/31 11:11:36;;;;;;;2.00;1.90;;;4.90;99.90;;;;;;5074735;28;20549;-70
2022/01/31 11:14:03;;;;;;;1.90;1.77;;;5.10;99.90;;;;;;5088447;28;20170;-70
2022/01/31 11:16:30;;;;;;;2.00;1.80;;;5.20;99.90;;;;;;5081121;28;20195;-70
2022/01/31 11:19:00;;;;;;;1.70;1.60;;;5.20;99.90;;;;;;5082224;28;20670;-69
2022/01/31 11:21:29;;;;;;;2.28;1.55;;;5.10;99.90;;;;;;5071786;28;20195;-70
2022/01/31 11:24:02;;;;;;;2.87;1.43;;;5.00;99.90;;;;;;5078922;28;20233;-70
2022/01/31 11:26:35;;;;;;;2.30;1.92;;;5.10;99.90;;;;;;5071311;28;20190;-70
2022/01/31 11:29:02;;;;;;;1.70;1.60;;;5.10;99.90;;;;;;5082284;28;20203;-70
2022/01/31 11:31:28;;;;;;;2.00;1.90;;;4.90;99.90;;;;;;5075076;28;20182;-70
2022/01/31 11:33:56;;;;;;;1.47;1.37;;;4.80;99.90;;;;;;5073943;28;20188;-69
2022/01/31 11:36:22;;;;;;;1.70;1.60;;;5.00;99.90;;;;;;5072121;28;20514;-69
2022/01/31 11:38:48;;;;;;;1.52;1.52;;;5.00;99.90;;;;;;5082259;28;20175;-69
2022/01/31 11:41:16;;;;;;;1.52;1.42;;;5.10;99.90;;;;;;5076180;28;20269;-69
2022/01/31 11:43:51;;;;;;;1.70;1.60;;;5.30;99.90;;;;;;5078735;28;20723;-69
2022/01/31 11:46:24;;;;;;;3.15;1.50;;;5.40;99.90;;;;;;5068799;28;20189;-69
2022/01/31 11:48:52;;;;;;;1.40;1.30;;;5.50;99.90;;;;;;5085707;28;20265;-69
2022/01/31 11:51:20;;;;;;;1.85;1.75;;;5.80;99.90;;;;;;5074588;28;20189;-69
2022/01/31 11:53:47;;;;;;;1.58;1.48;;;6.00;99.90;;;;;;5055860;28;20191;-69
2022/01/31 11:56:22;;;;;;;1.60;1.40;;;6.20;99.90;;;;;;5083861;28;20597;-69
2022/01/31 11:58:50;;;;;;;0.90;0.90;;;6.20;99.90;;;;;;5074167;28;20194;-69
2022/01/31 12:01:18;;;;;;;1.42;1.25;;;6.20;99.90;;;;;;5067115;28;20175;-70
2022/01/31 12:03:56;;;;;;;1.23;1.20;;;5.90;99.90;;;;;;5049395;28;20220;-69
2022/01/31 12:06:24;;;;;;;1.50;1.40;;;5.60;99.90;;;;;;5069119;28;20281;-69
2022/01/31 12:08:52;;;;;;;2.67;1.70;;;5.30;99.90;;;;;;5080491;28;20211;-69
2022/01/31 12:11:25;;;;;;;1.70;1.20;;;4.90;99.90;;;;;;5070314;28;20186;-69
2022/01/31 12:13:56;;;;;;;1.17;1.17;;;4.60;99.90;;;;;;5075465;28;20180;-70
2022/01/31 12:22:04;;;;;;;1.20;1.20;;;4.10;99.90;;;;;;5070738;28;20179;-70
2022/01/31 12:24:38;;;;;;;1.83;1.70;;;4.00;99.90;;;;;;5078400;28;21038;-72
2022/01/31 12:27:27;;;;;;;3.27;2.23;;;3.90;99.90;;;;;;5070568;28;20194;-68
2022/01/31 12:29:58;;;;;;;1.23;1.23;;;3.90;99.90;;;;;;5079452;28;20199;-70
2022/01/31 12:32:31;;;;;;;2.63;1.73;;;3.90;99.90;;;;;;5069728;28;20187;-69
2022/01/31 12:34:59;;;;;;;1.77;1.67;;;3.90;99.90;;;;;;5071816;28;20834;-69
2022/01/31 12:37:34;;;;;;;3.00;2.10;;;3.90;99.90;;;;;;5062011;28;20677;-69
2022/01/31 12:40:05;;;;;;;1.83;1.73;;;4.10;99.90;;;;;;5074478;28;20190;-69
2022/01/31 12:45:12;;;;;;;1.43;1.43;;;4.00;99.90;;;;;;5066398;28;20180;-69
2022/01/31 12:47:58;;;;;;;2.00;1.90;;;4.00;99.90;;;;;;5079584;28;20199;-70
2022/01/31 12:50:25;;;;;;;1.33;1.33;;;4.10;99.90;;;;;;5067707;28;20262;-69
2022/01/31 12:52:50;;;;;;;4.77;2.23;;;4.20;99.90;;;;;;5072279;28;20547;-69
2022/01/31 12:55:17;;;;;;;2.40;2.20;;;4.20;99.90;;;;;;5071768;28;20176;-69
2022/01/31 12:57:47;;;;;;;3.03;2.10;;;4.20;99.90;;;;;;5064244;28;20202;-69
2022/01/31 13:00:14;;;;;;;2.03;1.83;;;4.20;99.90;;;;;;5066156;28;20172;-69
2022/01/31 13:02:52;;;;;;;5.20;3.07;;;4.10;99.90;;;;;;5069118;28;20525;-68
2022/01/31 13:05:34;;;;;;;16.80;3.10;;;4.10;99.90;;;;;;5083243;28;20551;-68
2022/01/31 13:08:01;;;;;;;2.37;2.20;;;4.00;99.90;;;;;;5067828;28;20213;-69
2022/01/31 13:10:37;;;;;;;2.87;2.40;;;4.00;99.90;;;;;;5072099;28;20544;-68
2022/01/31 13:13:03;;;;;;;2.50;2.30;;;4.00;99.90;;;;;;5070402;28;20183;-68
2022/01/31 13:15:29;;;;;;;2.63;1.93;;;4.00;99.90;;;;;;5078085;28;20581;-68
2022/01/31 13:18:09;;;;;;;2.20;2.00;;;4.00;99.90;;;;;;5077089;28;20187;-73
2022/01/31 13:20:36;;;;;;;4.97;2.70;;;3.90;99.90;;;;;;5056797;28;20206;-68
2022/01/31 13:23:04;;;;;;;2.23;1.83;;;4.00;99.90;;;;;;5079730;28;20206;-70
2022/01/31 13:25:30;;;;;;;3.63;2.30;;;4.10;99.90;;;;;;5075461;28;20699;-69